sensor_id;sensor_type;location;lat;lon;timestamp;P1;durP1;ratioP1;P2;durP2;ratioP2
13026;SDS011;6580;42.680;23.324;2023-06-22T00:01:41;8.75;;;7.60;;
13026;SDS011;6580;42.680;23.324;2023-06-22T00:04:27;8.15;;;7.35;;
13026;SDS011;6580;42.680;23.324;2023-06-22T00:07:15;10.48;;;7.57;;
13026;SDS011;6580;42.680;23.324;2023-06-22T00:10:02;9.05;;;8.15;;
13026;SDS011;6580;42.680;23.324;2023-06-22T00:12:48;9.48;;;8.45;;
13026;SDS011;6580;42.680;23.324;2023-06-22T00:15:33;8.68;;;7.78;;
13026;SDS011;6580;42.680;23.324;2023-06-22T00:18:20;8.48;;;7.68;;
13026;SDS011;6580;42.680;23.324;2023-06-22T00:21:11;9.07;;;8.02;;
13026;SDS011;6580;42.680;23.324;2023-06-22T00:24:00;8.48;;;7.68;;
13026;SDS011;6580;42.680;23.324;2023-06-22T00:26:47;8.77;;;7.82;;
13026;SDS011;6580;42.680;23.324;2023-06-22T00:29:34;11.63;;;8.48;;
13026;SDS011;6580;42.680;23.324;2023-06-22T00:32:21;9.10;;;8.07;;
13026;SDS011;6580;42.680;23.324;2023-06-22T00:35:09;8.65;;;7.75;;
13026;SDS011;6580;42.680;23.324;2023-06-22T00:37:55;9.88;;;8.90;;
13026;SDS011;6580;42.680;23.324;2023-06-22T00:40:54;7.78;;;7.00;;
13026;SDS011;6580;42.680;23.324;2023-06-22T00:43:42;9.48;;;7.68;;
13026;SDS011;6580;42.680;23.324;2023-06-22T00:46:28;9.80;;;8.02;;
13026;SDS011;6580;42.680;23.324;2023-06-22T00:49:16;8.63;;;7.75;;
13026;SDS011;6580;42.680;23.324;2023-06-22T00:52:06;8.05;;;7.25;;
13026;SDS011;6580;42.680;23.324;2023-06-22T00:54:53;8.93;;;8.02;;
13026;SDS011;6580;42.680;23.324;2023-06-22T00:57:41;8.75;;;7.80;;
13026;SDS011;6580;42.680;23.324;2023-06-22T01:00:26;10.02;;;7.93;;
13026;SDS011;6580;42.680;23.324;2023-06-22T01:03:12;8.65;;;7.85;;
13026;SDS011;6580;42.680;23.324;2023-06-22T01:06:02;9.38;;;7.88;;
13026;SDS011;6580;42.680;23.324;2023-06-22T01:08:54;9.52;;;8.63;;
13026;SDS011;6580;42.680;23.324;2023-06-22T01:11:51;10.27;;;8.70;;
13026;SDS011;6580;42.680;23.324;2023-06-22T01:14:47;8.98;;;8.07;;
13026;SDS011;6580;42.680;23.324;2023-06-22T01:17:43;10.77;;;8.30;;
13026;SDS011;6580;42.680;23.324;2023-06-22T01:20:30;10.00;;;8.95;;
13026;SDS011;6580;42.680;23.324;2023-06-22T01:23:21;9.73;;;8.05;;
13026;SDS011;6580;42.680;23.324;2023-06-22T01:26:17;10.07;;;8.20;;
13026;SDS011;6580;42.680;23.324;2023-06-22T01:29:07;9.00;;;8.10;;
13026;SDS011;6580;42.680;23.324;2023-06-22T01:31:57;8.73;;;7.90;;
13026;SDS011;6580;42.680;23.324;2023-06-22T01:34:45;9.20;;;8.23;;
13026;SDS011;6580;42.680;23.324;2023-06-22T01:37:35;10.75;;;8.00;;
13026;SDS011;6580;42.680;23.324;2023-06-22T01:40:22;9.52;;;8.63;;
13026;SDS011;6580;42.680;23.324;2023-06-22T01:43:09;8.90;;;8.00;;
13026;SDS011;6580;42.680;23.324;2023-06-22T01:45:59;9.70;;;8.60;;
13026;SDS011;6580;42.680;23.324;2023-06-22T01:48:51;8.70;;;7.82;;
13026;SDS011;6580;42.680;23.324;2023-06-22T01:51:43;8.85;;;7.90;;
13026;SDS011;6580;42.680;23.324;2023-06-22T01:54:29;8.75;;;7.85;;
13026;SDS011;6580;42.680;23.324;2023-06-22T01:57:15;9.95;;;8.50;;
13026;SDS011;6580;42.680;23.324;2023-06-22T02:00:02;8.85;;;7.95;;
13026;SDS011;6580;42.680;23.324;2023-06-22T02:02:53;9.02;;;8.10;;
13026;SDS011;6580;42.680;23.324;2023-06-22T02:05:45;10.77;;;8.23;;
13026;SDS011;6580;42.680;23.324;2023-06-22T02:08:40;10.15;;;8.40;;
13026;SDS011;6580;42.680;23.324;2023-06-22T02:11:32;8.18;;;7.38;;
13026;SDS011;6580;42.680;23.324;2023-06-22T02:14:19;8.88;;;7.72;;
13026;SDS011;6580;42.680;23.324;2023-06-22T02:17:08;9.57;;;8.60;;
13026;SDS011;6580;42.680;23.324;2023-06-22T02:19:55;8.75;;;7.85;;
13026;SDS011;6580;42.680;23.324;2023-06-22T02:22:41;12.35;;;10.52;;
13026;SDS011;6580;42.680;23.324;2023-06-22T02:25:27;9.63;;;8.63;;
13026;SDS011;6580;42.680;23.324;2023-06-22T02:28:15;10.05;;;8.27;;
13026;SDS011;6580;42.680;23.324;2023-06-22T02:31:05;10.02;;;8.35;;
13026;SDS011;6580;42.680;23.324;2023-06-22T02:33:51;9.68;;;8.02;;
13026;SDS011;6580;42.680;23.324;2023-06-22T02:36:39;9.60;;;8.30;;
13026;SDS011;6580;42.680;23.324;2023-06-22T02:39:34;8.68;;;7.78;;
13026;SDS011;6580;42.680;23.324;2023-06-22T02:42:21;8.85;;;8.05;;
13026;SDS011;6580;42.680;23.324;2023-06-22T02:45:07;9.95;;;8.63;;
13026;SDS011;6580;42.680;23.324;2023-06-22T02:47:55;8.55;;;7.75;;
13026;SDS011;6580;42.680;23.324;2023-06-22T02:50:41;11.07;;;8.23;;
13026;SDS011;6580;42.680;23.324;2023-06-22T02:53:29;8.38;;;7.57;;
13026;SDS011;6580;42.680;23.324;2023-06-22T02:56:15;8.25;;;7.45;;
13026;SDS011;6580;42.680;23.324;2023-06-22T02:59:01;11.20;;;8.27;;
13026;SDS011;6580;42.680;23.324;2023-06-22T03:01:49;8.70;;;7.90;;
13026;SDS011;6580;42.680;23.324;2023-06-22T03:04:35;9.32;;;8.43;;
13026;SDS011;6580;42.680;23.324;2023-06-22T03:07:20;8.63;;;7.72;;
13026;SDS011;6580;42.680;23.324;2023-06-22T03:10:11;8.73;;;7.85;;
13026;SDS011;6580;42.680;23.324;2023-06-22T03:13:00;9.25;;;7.97;;
13026;SDS011;6580;42.680;23.324;2023-06-22T03:15:45;7.93;;;7.22;;
13026;SDS011;6580;42.680;23.324;2023-06-22T03:18:31;8.32;;;7.50;;
13026;SDS011;6580;42.680;23.324;2023-06-22T03:21:16;9.90;;;8.50;;
13026;SDS011;6580;42.680;23.324;2023-06-22T03:24:01;8.68;;;7.78;;
13026;SDS011;6580;42.680;23.324;2023-06-22T03:26:52;9.05;;;7.32;;
13026;SDS011;6580;42.680;23.324;2023-06-22T03:29:38;8.68;;;7.78;;
13026;SDS011;6580;42.680;23.324;2023-06-22T03:32:24;8.60;;;7.32;;
13026;SDS011;6580;42.680;23.324;2023-06-22T03:35:11;9.23;;;8.30;;
13026;SDS011;6580;42.680;23.324;2023-06-22T03:38:00;8.90;;;8.00;;
13026;SDS011;6580;42.680;23.324;2023-06-22T03:40:47;8.75;;;7.95;;
13026;SDS011;6580;42.680;23.324;2023-06-22T03:43:37;8.30;;;7.47;;
13026;SDS011;6580;42.680;23.324;2023-06-22T03:46:22;8.60;;;7.57;;
13026;SDS011;6580;42.680;23.324;2023-06-22T03:49:09;8.73;;;7.82;;
13026;SDS011;6580;42.680;23.324;2023-06-22T03:51:55;8.25;;;7.50;;
13026;SDS011;6580;42.680;23.324;2023-06-22T03:54:40;9.32;;;8.43;;
13026;SDS011;6580;42.680;23.324;2023-06-22T03:57:26;8.77;;;7.95;;
13026;SDS011;6580;42.680;23.324;2023-06-22T04:00:14;9.32;;;8.25;;
13026;SDS011;6580;42.680;23.324;2023-06-22T04:03:03;10.07;;;8.55;;
13026;SDS011;6580;42.680;23.324;2023-06-22T04:05:51;8.88;;;7.97;;
13026;SDS011;6580;42.680;23.324;2023-06-22T04:08:39;9.45;;;8.07;;
13026;SDS011;6580;42.680;23.324;2023-06-22T04:11:26;9.02;;;7.70;;
13026;SDS011;6580;42.680;23.324;2023-06-22T04:14:12;9.82;;;8.13;;
13026;SDS011;6580;42.680;23.324;2023-06-22T04:16:58;10.57;;;8.82;;
13026;SDS011;6580;42.680;23.324;2023-06-22T04:19:45;8.57;;;7.68;;
13026;SDS011;6580;42.680;23.324;2023-06-22T04:22:31;11.35;;;9.20;;
13026;SDS011;6580;42.680;23.324;2023-06-22T04:25:16;9.27;;;8.13;;
13026;SDS011;6580;42.680;23.324;2023-06-22T04:28:03;9.73;;;8.20;;
13026;SDS011;6580;42.680;23.324;2023-06-22T04:30:50;9.18;;;8.18;;
13026;SDS011;6580;42.680;23.324;2023-06-22T04:33:38;8.20;;;7.35;;
13026;SDS011;6580;42.680;23.324;2023-06-22T04:36:24;9.02;;;7.95;;
13026;SDS011;6580;42.680;23.324;2023-06-22T04:39:14;9.98;;;8.98;;
13026;SDS011;6580;42.680;23.324;2023-06-22T04:42:00;9.15;;;8.23;;
13026;SDS011;6580;42.680;23.324;2023-06-22T04:44:46;9.57;;;8.57;;
13026;SDS011;6580;42.680;23.324;2023-06-22T04:47:31;9.70;;;8.52;;
13026;SDS011;6580;42.680;23.324;2023-06-22T04:50:18;9.65;;;8.65;;
13026;SDS011;6580;42.680;23.324;2023-06-22T04:53:07;8.93;;;8.02;;
13026;SDS011;6580;42.680;23.324;2023-06-22T04:55:56;9.18;;;8.18;;
13026;SDS011;6580;42.680;23.324;2023-06-22T04:58:42;9.20;;;8.30;;
13026;SDS011;6580;42.680;23.324;2023-06-22T05:01:28;9.90;;;8.27;;
13026;SDS011;6580;42.680;23.324;2023-06-22T05:04:15;9.15;;;8.23;;
13026;SDS011;6580;42.680;23.324;2023-06-22T05:07:02;9.18;;;8.20;;
13026;SDS011;6580;42.680;23.324;2023-06-22T05:09:49;10.45;;;9.15;;
13026;SDS011;6580;42.680;23.324;2023-06-22T05:12:35;10.68;;;8.80;;
13026;SDS011;6580;42.680;23.324;2023-06-22T05:15:21;10.25;;;8.73;;
13026;SDS011;6580;42.680;23.324;2023-06-22T05:18:11;9.73;;;8.73;;
13026;SDS011;6580;42.680;23.324;2023-06-22T05:20:57;8.95;;;8.07;;
13026;SDS011;6580;42.680;23.324;2023-06-22T05:23:45;11.60;;;8.88;;
13026;SDS011;6580;42.680;23.324;2023-06-22T05:26:38;8.45;;;7.63;;
13026;SDS011;6580;42.680;23.324;2023-06-22T05:29:25;9.98;;;7.93;;
13026;SDS011;6580;42.680;23.324;2023-06-22T05:32:18;8.85;;;7.95;;
13026;SDS011;6580;42.680;23.324;2023-06-22T05:35:05;8.32;;;7.53;;
13026;SDS011;6580;42.680;23.324;2023-06-22T05:37:52;9.73;;;8.65;;
13026;SDS011;6580;42.680;23.324;2023-06-22T05:40:40;10.13;;;9.02;;
13026;SDS011;6580;42.680;23.324;2023-06-22T05:43:26;9.57;;;8.65;;
13026;SDS011;6580;42.680;23.324;2023-06-22T05:46:12;9.52;;;8.30;;
13026;SDS011;6580;42.680;23.324;2023-06-22T05:49:00;9.10;;;8.13;;
13026;SDS011;6580;42.680;23.324;2023-06-22T05:51:46;9.27;;;8.38;;
13026;SDS011;6580;42.680;23.324;2023-06-22T05:54:32;9.43;;;8.43;;
13026;SDS011;6580;42.680;23.324;2023-06-22T05:57:22;9.43;;;8.43;;
13026;SDS011;6580;42.680;23.324;2023-06-22T06:00:08;9.20;;;8.02;;
13026;SDS011;6580;42.680;23.324;2023-06-22T06:02:56;8.50;;;7.70;;
13026;SDS011;6580;42.680;23.324;2023-06-22T06:05:46;9.00;;;8.10;;
13026;SDS011;6580;42.680;23.324;2023-06-22T06:08:32;9.30;;;8.40;;
13026;SDS011;6580;42.680;23.324;2023-06-22T06:11:19;9.23;;;8.43;;
13026;SDS011;6580;42.680;23.324;2023-06-22T06:14:06;10.25;;;8.90;;
13026;SDS011;6580;42.680;23.324;2023-06-22T06:16:53;9.18;;;8.27;;
13026;SDS011;6580;42.680;23.324;2023-06-22T06:19:38;9.45;;;8.45;;
13026;SDS011;6580;42.680;23.324;2023-06-22T06:22:24;9.38;;;7.55;;
13026;SDS011;6580;42.680;23.324;2023-06-22T06:25:10;9.45;;;8.55;;
13026;SDS011;6580;42.680;23.324;2023-06-22T06:27:59;9.50;;;8.60;;
13026;SDS011;6580;42.680;23.324;2023-06-22T06:31:00;9.77;;;7.75;;
13026;SDS011;6580;42.680;23.324;2023-06-22T06:33:50;8.10;;;7.20;;
13026;SDS011;6580;42.680;23.324;2023-06-22T06:36:37;8.38;;;7.65;;
13026;SDS011;6580;42.680;23.324;2023-06-22T06:39:23;9.02;;;8.23;;
13026;SDS011;6580;42.680;23.324;2023-06-22T06:42:09;8.50;;;7.70;;
13026;SDS011;6580;42.680;23.324;2023-06-22T06:44:54;8.30;;;7.47;;
13026;SDS011;6580;42.680;23.324;2023-06-22T06:47:45;8.65;;;7.72;;
13026;SDS011;6580;42.680;23.324;2023-06-22T06:50:31;8.50;;;7.65;;
13026;SDS011;6580;42.680;23.324;2023-06-22T06:53:17;8.18;;;7.45;;
13026;SDS011;6580;42.680;23.324;2023-06-22T06:56:03;8.07;;;7.28;;
13026;SDS011;6580;42.680;23.324;2023-06-22T06:58:51;8.93;;;8.02;;
13026;SDS011;6580;42.680;23.324;2023-06-22T07:01:37;8.20;;;7.40;;
13026;SDS011;6580;42.680;23.324;2023-06-22T07:04:24;8.88;;;7.97;;
13026;SDS011;6580;42.680;23.324;2023-06-22T07:07:09;9.23;;;8.18;;
13026;SDS011;6580;42.680;23.324;2023-06-22T07:09:56;8.20;;;7.40;;
13026;SDS011;6580;42.680;23.324;2023-06-22T07:12:42;8.60;;;7.70;;
13026;SDS011;6580;42.680;23.324;2023-06-22T07:15:30;8.38;;;7.57;;
13026;SDS011;6580;42.680;23.324;2023-06-22T07:18:15;8.55;;;7.75;;
13026;SDS011;6580;42.680;23.324;2023-06-22T07:21:02;8.45;;;7.65;;
13026;SDS011;6580;42.680;23.324;2023-06-22T07:23:50;7.88;;;7.10;;
13026;SDS011;6580;42.680;23.324;2023-06-22T07:26:36;7.82;;;7.13;;
13026;SDS011;6580;42.680;23.324;2023-06-22T07:29:21;8.57;;;7.25;;
13026;SDS011;6580;42.680;23.324;2023-06-22T07:32:07;8.20;;;7.47;;
13026;SDS011;6580;42.680;23.324;2023-06-22T07:34:53;7.80;;;7.13;;
13026;SDS011;6580;42.680;23.324;2023-06-22T07:37:41;9.43;;;7.97;;
13026;SDS011;6580;42.680;23.324;2023-06-22T07:40:29;8.20;;;7.40;;
13026;SDS011;6580;42.680;23.324;2023-06-22T07:43:15;8.15;;;7.45;;
13026;SDS011;6580;42.680;23.324;2023-06-22T07:46:00;8.73;;;8.00;;
13026;SDS011;6580;42.680;23.324;2023-06-22T07:48:46;10.82;;;7.47;;
13026;SDS011;6580;42.680;23.324;2023-06-22T07:51:31;7.50;;;6.85;;
13026;SDS011;6580;42.680;23.324;2023-06-22T07:54:18;7.93;;;7.22;;
13026;SDS011;6580;42.680;23.324;2023-06-22T07:57:04;7.97;;;7.28;;
13026;SDS011;6580;42.680;23.324;2023-06-22T07:59:50;8.93;;;8.13;;
13026;SDS011;6580;42.680;23.324;2023-06-22T08:02:37;8.48;;;7.68;;
13026;SDS011;6580;42.680;23.324;2023-06-22T08:05:24;9.80;;;7.38;;
13026;SDS011;6580;42.680;23.324;2023-06-22T08:08:09;7.82;;;7.10;;
13026;SDS011;6580;42.680;23.324;2023-06-22T08:10:57;9.35;;;8.45;;
13026;SDS011;6580;42.680;23.324;2023-06-22T08:13:42;7.82;;;7.05;;
13026;SDS011;6580;42.680;23.324;2023-06-22T08:16:30;9.23;;;8.23;;
13026;SDS011;6580;42.680;23.324;2023-06-22T08:19:16;8.05;;;7.35;;
13026;SDS011;6580;42.680;23.324;2023-06-22T08:22:02;7.82;;;7.13;;
13026;SDS011;6580;42.680;23.324;2023-06-22T08:24:48;8.95;;;7.70;;
13026;SDS011;6580;42.680;23.324;2023-06-22T08:27:35;7.90;;;7.20;;
13026;SDS011;6580;42.680;23.324;2023-06-22T08:30:22;8.55;;;7.75;;
13026;SDS011;6580;42.680;23.324;2023-06-22T08:33:11;8.30;;;7.50;;
13026;SDS011;6580;42.680;23.324;2023-06-22T08:36:01;7.20;;;6.55;;
13026;SDS011;6580;42.680;23.324;2023-06-22T08:38:49;7.30;;;6.68;;
13026;SDS011;6580;42.680;23.324;2023-06-22T08:41:36;7.82;;;6.57;;
13026;SDS011;6580;42.680;23.324;2023-06-22T08:44:23;7.60;;;6.90;;
13026;SDS011;6580;42.680;23.324;2023-06-22T08:47:09;8.45;;;7.65;;
13026;SDS011;6580;42.680;23.324;2023-06-22T08:49:54;10.60;;;9.60;;
13026;SDS011;6580;42.680;23.324;2023-06-22T08:52:43;9.45;;;8.48;;
13026;SDS011;6580;42.680;23.324;2023-06-22T08:55:29;8.00;;;7.30;;
13026;SDS011;6580;42.680;23.324;2023-06-22T08:58:15;9.60;;;8.65;;
13026;SDS011;6580;42.680;23.324;2023-06-22T09:01:03;7.15;;;6.57;;
13026;SDS011;6580;42.680;23.324;2023-06-22T09:03:51;7.43;;;6.82;;
13026;SDS011;6580;42.680;23.324;2023-06-22T09:06:43;10.15;;;9.20;;
13026;SDS011;6580;42.680;23.324;2023-06-22T09:09:37;7.80;;;7.10;;
13026;SDS011;6580;42.680;23.324;2023-06-22T09:12:23;7.20;;;6.53;;
13026;SDS011;6580;42.680;23.324;2023-06-22T09:15:10;7.35;;;6.75;;
13026;SDS011;6580;42.680;23.324;2023-06-22T09:17:57;12.38;;;7.20;;
13026;SDS011;6580;42.680;23.324;2023-06-22T09:20:43;6.38;;;5.88;;
13026;SDS011;6580;42.680;23.324;2023-06-22T09:23:35;6.80;;;6.20;;
13026;SDS011;6580;42.680;23.324;2023-06-22T09:26:20;6.82;;;6.32;;
13026;SDS011;6580;42.680;23.324;2023-06-22T09:29:07;6.35;;;5.75;;
13026;SDS011;6580;42.680;23.324;2023-06-22T09:31:56;6.78;;;6.13;;
13026;SDS011;6580;42.680;23.324;2023-06-22T09:34:44;12.25;;;11.15;;
13026;SDS011;6580;42.680;23.324;2023-06-22T09:37:31;13.85;;;12.55;;
13026;SDS011;6580;42.680;23.324;2023-06-22T09:40:22;7.38;;;6.65;;
13026;SDS011;6580;42.680;23.324;2023-06-22T09:43:07;7.43;;;6.72;;
13026;SDS011;6580;42.680;23.324;2023-06-22T09:45:52;6.50;;;5.90;;
13026;SDS011;6580;42.680;23.324;2023-06-22T09:48:38;6.05;;;5.55;;
13026;SDS011;6580;42.680;23.324;2023-06-22T09:51:25;6.72;;;6.22;;
13026;SDS011;6580;42.680;23.324;2023-06-22T09:54:11;5.80;;;5.40;;
13026;SDS011;6580;42.680;23.324;2023-06-22T09:56:58;7.93;;;6.32;;
13026;SDS011;6580;42.680;23.324;2023-06-22T09:59:46;7.05;;;6.45;;
13026;SDS011;6580;42.680;23.324;2023-06-22T10:02:31;7.50;;;6.90;;
13026;SDS011;6580;42.680;23.324;2023-06-22T10:05:17;7.25;;;6.55;;
13026;SDS011;6580;42.680;23.324;2023-06-22T10:08:06;7.20;;;6.55;;
13026;SDS011;6580;42.680;23.324;2023-06-22T10:10:53;7.03;;;6.43;;
13026;SDS011;6580;42.680;23.324;2023-06-22T10:13:43;7.30;;;6.60;;
13026;SDS011;6580;42.680;23.324;2023-06-22T10:16:30;7.35;;;6.75;;
13026;SDS011;6580;42.680;23.324;2023-06-22T10:19:16;7.03;;;6.35;;
13026;SDS011;6580;42.680;23.324;2023-06-22T10:22:02;7.28;;;6.68;;
13026;SDS011;6580;42.680;23.324;2023-06-22T10:24:49;7.68;;;7.07;;
13026;SDS011;6580;42.680;23.324;2023-06-22T10:27:36;7.18;;;6.50;;
13026;SDS011;6580;42.680;23.324;2023-06-22T10:30:26;7.22;;;6.63;;
13026;SDS011;6580;42.680;23.324;2023-06-22T10:33:14;7.18;;;6.57;;
13026;SDS011;6580;42.680;23.324;2023-06-22T10:36:00;7.22;;;6.63;;
13026;SDS011;6580;42.680;23.324;2023-06-22T10:38:49;7.20;;;6.60;;
13026;SDS011;6580;42.680;23.324;2023-06-22T10:41:40;6.53;;;5.93;;
13026;SDS011;6580;42.680;23.324;2023-06-22T10:44:26;6.78;;;6.18;;
13026;SDS011;6580;42.680;23.324;2023-06-22T10:47:11;6.55;;;5.95;;
13026;SDS011;6580;42.680;23.324;2023-06-22T10:49:57;7.03;;;6.53;;
13026;SDS011;6580;42.680;23.324;2023-06-22T10:52:43;7.10;;;6.60;;
13026;SDS011;6580;42.680;23.324;2023-06-22T10:55:31;6.95;;;6.35;;
13026;SDS011;6580;42.680;23.324;2023-06-22T10:58:19;6.50;;;6.00;;
13026;SDS011;6580;42.680;23.324;2023-06-22T11:01:06;6.40;;;5.90;;
13026;SDS011;6580;42.680;23.324;2023-06-22T11:03:51;6.32;;;5.80;;
13026;SDS011;6580;42.680;23.324;2023-06-22T11:06:40;6.97;;;6.38;;
13026;SDS011;6580;42.680;23.324;2023-06-22T11:09:26;6.25;;;5.78;;
13026;SDS011;6580;42.680;23.324;2023-06-22T11:12:13;6.20;;;5.70;;
13026;SDS011;6580;42.680;23.324;2023-06-22T11:15:01;7.13;;;6.45;;
13026;SDS011;6580;42.680;23.324;2023-06-22T11:17:49;7.18;;;6.57;;
13026;SDS011;6580;42.680;23.324;2023-06-22T11:20:36;6.97;;;6.38;;
13026;SDS011;6580;42.680;23.324;2023-06-22T11:23:24;7.55;;;6.95;;
13026;SDS011;6580;42.680;23.324;2023-06-22T11:26:11;6.57;;;5.97;;
13026;SDS011;6580;42.680;23.324;2023-06-22T11:28:58;7.60;;;7.00;;
13026;SDS011;6580;42.680;23.324;2023-06-22T11:31:45;8.60;;;7.72;;
13026;SDS011;6580;42.680;23.324;2023-06-22T11:34:30;7.15;;;6.55;;
13026;SDS011;6580;42.680;23.324;2023-06-22T11:37:16;7.93;;;7.22;;
13026;SDS011;6580;42.680;23.324;2023-06-22T11:40:02;6.53;;;6.00;;
13026;SDS011;6580;42.680;23.324;2023-06-22T11:42:52;6.47;;;5.97;;
13026;SDS011;6580;42.680;23.324;2023-06-22T11:45:38;7.10;;;6.50;;
13026;SDS011;6580;42.680;23.324;2023-06-22T11:48:26;6.70;;;6.10;;
13026;SDS011;6580;42.680;23.324;2023-06-22T11:51:13;8.68;;;7.78;;
13026;SDS011;6580;42.680;23.324;2023-06-22T11:53:59;6.85;;;6.15;;
13026;SDS011;6580;42.680;23.324;2023-06-22T11:56:45;6.40;;;5.80;;
13026;SDS011;6580;42.680;23.324;2023-06-22T11:59:30;6.93;;;6.22;;
13026;SDS011;6580;42.680;23.324;2023-06-22T12:02:19;6.28;;;5.68;;
13026;SDS011;6580;42.680;23.324;2023-06-22T12:05:06;6.45;;;5.90;;
13026;SDS011;6580;42.680;23.324;2023-06-22T12:07:53;6.43;;;5.82;;
13026;SDS011;6580;42.680;23.324;2023-06-22T12:10:38;7.28;;;6.68;;
13026;SDS011;6580;42.680;23.324;2023-06-22T12:13:24;6.78;;;6.18;;
13026;SDS011;6580;42.680;23.324;2023-06-22T12:16:11;7.30;;;6.60;;
13026;SDS011;6580;42.680;23.324;2023-06-22T12:18:56;7.07;;;6.43;;
13026;SDS011;6580;42.680;23.324;2023-06-22T12:21:43;7.47;;;6.78;;
13026;SDS011;6580;42.680;23.324;2023-06-22T12:24:30;7.40;;;6.70;;
13026;SDS011;6580;42.680;23.324;2023-06-22T12:27:16;6.88;;;6.28;;
13026;SDS011;6580;42.680;23.324;2023-06-22T12:30:03;8.05;;;7.30;;
13026;SDS011;6580;42.680;23.324;2023-06-22T12:32:50;8.70;;;7.90;;
13026;SDS011;6580;42.680;23.324;2023-06-22T12:35:36;13.13;;;9.68;;
13026;SDS011;6580;42.680;23.324;2023-06-22T12:38:22;7.32;;;6.70;;
13026;SDS011;6580;42.680;23.324;2023-06-22T12:41:09;7.55;;;6.85;;
13026;SDS011;6580;42.680;23.324;2023-06-22T12:43:54;6.47;;;5.78;;
13026;SDS011;6580;42.680;23.324;2023-06-22T12:46:40;7.70;;;6.45;;
13026;SDS011;6580;42.680;23.324;2023-06-22T12:49:25;6.97;;;6.20;;
13026;SDS011;6580;42.680;23.324;2023-06-22T12:52:11;7.65;;;6.90;;
13026;SDS011;6580;42.680;23.324;2023-06-22T12:54:58;7.20;;;6.50;;
13026;SDS011;6580;42.680;23.324;2023-06-22T12:57:43;6.55;;;5.95;;
13026;SDS011;6580;42.680;23.324;2023-06-22T13:00:29;9.75;;;5.90;;
13026;SDS011;6580;42.680;23.324;2023-06-22T13:03:14;8.23;;;6.60;;
13026;SDS011;6580;42.680;23.324;2023-06-22T13:05:59;10.73;;;7.45;;
13026;SDS011;6580;42.680;23.324;2023-06-22T13:08:46;6.40;;;5.75;;
13026;SDS011;6580;42.680;23.324;2023-06-22T13:11:33;6.10;;;5.50;;
13026;SDS011;6580;42.680;23.324;2023-06-22T13:14:19;6.40;;;5.85;;
13026;SDS011;6580;42.680;23.324;2023-06-22T13:17:05;7.13;;;6.53;;
13026;SDS011;6580;42.680;23.324;2023-06-22T13:19:51;9.38;;;7.18;;
13026;SDS011;6580;42.680;23.324;2023-06-22T13:22:39;6.72;;;5.88;;
13026;SDS011;6580;42.680;23.324;2023-06-22T13:25:26;7.32;;;6.63;;
13026;SDS011;6580;42.680;23.324;2023-06-22T13:28:14;7.53;;;6.53;;
13026;SDS011;6580;42.680;23.324;2023-06-22T13:30:59;7.75;;;7.05;;
13026;SDS011;6580;42.680;23.324;2023-06-22T13:33:45;7.78;;;6.97;;
13026;SDS011;6580;42.680;23.324;2023-06-22T13:36:31;7.90;;;6.78;;
13026;SDS011;6580;42.680;23.324;2023-06-22T13:39:17;7.65;;;6.63;;
13026;SDS011;6580;42.680;23.324;2023-06-22T13:42:03;7.20;;;6.50;;
13026;SDS011;6580;42.680;23.324;2023-06-22T13:44:52;7.90;;;7.20;;
13026;SDS011;6580;42.680;23.324;2023-06-22T13:47:40;7.60;;;6.90;;
13026;SDS011;6580;42.680;23.324;2023-06-22T13:50:26;6.80;;;6.10;;
13026;SDS011;6580;42.680;23.324;2023-06-22T13:53:13;8.13;;;6.97;;
13026;SDS011;6580;42.680;23.324;2023-06-22T13:56:00;7.90;;;7.10;;
13026;SDS011;6580;42.680;23.324;2023-06-22T13:58:45;7.80;;;7.10;;
13026;SDS011;6580;42.680;23.324;2023-06-22T14:01:32;8.02;;;6.85;;
13026;SDS011;6580;42.680;23.324;2023-06-22T14:04:17;8.00;;;7.30;;
13026;SDS011;6580;42.680;23.324;2023-06-22T14:07:03;7.78;;;6.85;;
13026;SDS011;6580;42.680;23.324;2023-06-22T14:09:49;7.60;;;6.90;;
13026;SDS011;6580;42.680;23.324;2023-06-22T14:12:34;8.00;;;7.30;;
13026;SDS011;6580;42.680;23.324;2023-06-22T14:15:20;9.35;;;7.68;;
13026;SDS011;6580;42.680;23.324;2023-06-22T14:18:08;9.27;;;7.80;;
13026;SDS011;6580;42.680;23.324;2023-06-22T14:20:54;8.23;;;7.43;;
13026;SDS011;6580;42.680;23.324;2023-06-22T14:23:40;9.88;;;7.28;;
13026;SDS011;6580;42.680;23.324;2023-06-22T14:26:25;7.68;;;6.97;;
13026;SDS011;6580;42.680;23.324;2023-06-22T14:29:11;9.93;;;7.78;;
13026;SDS011;6580;42.680;23.324;2023-06-22T14:31:57;9.68;;;8.18;;
13026;SDS011;6580;42.680;23.324;2023-06-22T14:34:44;8.52;;;7.63;;
13026;SDS011;6580;42.680;23.324;2023-06-22T14:37:30;8.85;;;7.95;;
13026;SDS011;6580;42.680;23.324;2023-06-22T14:40:16;10.57;;;7.85;;
13026;SDS011;6580;42.680;23.324;2023-06-22T14:43:02;9.07;;;8.15;;
13026;SDS011;6580;42.680;23.324;2023-06-22T14:45:48;8.40;;;7.60;;
13026;SDS011;6580;42.680;23.324;2023-06-22T14:48:34;8.55;;;7.65;;
13026;SDS011;6580;42.680;23.324;2023-06-22T14:51:21;7.80;;;6.90;;
13026;SDS011;6580;42.680;23.324;2023-06-22T14:54:07;8.13;;;6.32;;
13026;SDS011;6580;42.680;23.324;2023-06-22T14:56:55;7.57;;;6.80;;
13026;SDS011;6580;42.680;23.324;2023-06-22T14:59:40;7.45;;;6.75;;
13026;SDS011;6580;42.680;23.324;2023-06-22T15:02:26;7.32;;;6.13;;
13026;SDS011;6580;42.680;23.324;2023-06-22T15:05:11;7.38;;;6.68;;
13026;SDS011;6580;42.680;23.324;2023-06-22T15:07:58;9.20;;;6.93;;
13026;SDS011;6580;42.680;23.324;2023-06-22T15:10:44;7.00;;;6.30;;
13026;SDS011;6580;42.680;23.324;2023-06-22T15:13:30;6.82;;;6.22;;
13026;SDS011;6580;42.680;23.324;2023-06-22T15:16:34;7.60;;;6.63;;
13026;SDS011;6580;42.680;23.324;2023-06-22T15:19:20;7.95;;;6.55;;
13026;SDS011;6580;42.680;23.324;2023-06-22T15:22:07;7.50;;;6.80;;
13026;SDS011;6580;42.680;23.324;2023-06-22T15:24:54;6.43;;;5.82;;
13026;SDS011;6580;42.680;23.324;2023-06-22T15:27:41;7.25;;;6.25;;
13026;SDS011;6580;42.680;23.324;2023-06-22T15:30:27;6.85;;;6.18;;
13026;SDS011;6580;42.680;23.324;2023-06-22T15:33:12;7.10;;;6.00;;
13026;SDS011;6580;42.680;23.324;2023-06-22T15:35:58;6.90;;;6.20;;
13026;SDS011;6580;42.680;23.324;2023-06-22T15:38:47;6.40;;;5.80;;
13026;SDS011;6580;42.680;23.324;2023-06-22T15:41:36;7.55;;;6.20;;
13026;SDS011;6580;42.680;23.324;2023-06-22T15:44:26;8.38;;;7.57;;
13026;SDS011;6580;42.680;23.324;2023-06-22T15:47:11;6.97;;;6.32;;
13026;SDS011;6580;42.680;23.324;2023-06-22T15:49:59;7.07;;;6.43;;
13026;SDS011;6580;42.680;23.324;2023-06-22T15:52:45;6.68;;;5.93;;
13026;SDS011;6580;42.680;23.324;2023-06-22T15:55:35;7.53;;;6.30;;
13026;SDS011;6580;42.680;23.324;2023-06-22T15:58:24;7.40;;;6.63;;
13026;SDS011;6580;42.680;23.324;2023-06-22T16:01:09;7.22;;;6.53;;
13026;SDS011;6580;42.680;23.324;2023-06-22T16:03:55;7.22;;;6.50;;
13026;SDS011;6580;42.680;23.324;2023-06-22T16:06:41;6.28;;;5.78;;
13026;SDS011;6580;42.680;23.324;2023-06-22T16:09:26;7.93;;;7.15;;
13026;SDS011;6580;42.680;23.324;2023-06-22T16:12:12;6.78;;;6.18;;
13026;SDS011;6580;42.680;23.324;2023-06-22T16:15:01;6.43;;;5.82;;
13026;SDS011;6580;42.680;23.324;2023-06-22T16:17:48;6.88;;;6.25;;
13026;SDS011;6580;42.680;23.324;2023-06-22T16:20:34;6.32;;;5.72;;
13026;SDS011;6580;42.680;23.324;2023-06-22T16:23:20;7.30;;;6.53;;
13026;SDS011;6580;42.680;23.324;2023-06-22T16:26:07;7.05;;;6.05;;
13026;SDS011;6580;42.680;23.324;2023-06-22T16:28:55;8.15;;;6.80;;
13026;SDS011;6580;42.680;23.324;2023-06-22T16:31:43;6.63;;;5.93;;
13026;SDS011;6580;42.680;23.324;2023-06-22T16:34:29;6.68;;;5.95;;
13026;SDS011;6580;42.680;23.324;2023-06-22T16:37:15;7.90;;;6.97;;
13026;SDS011;6580;42.680;23.324;2023-06-22T16:40:14;6.65;;;5.95;;
13026;SDS011;6580;42.680;23.324;2023-06-22T16:43:03;7.82;;;6.57;;
13026;SDS011;6580;42.680;23.324;2023-06-22T16:45:49;7.38;;;6.45;;